createdAt,value
2023-08-15T00:03:41.159Z,2.90
2023-08-15T00:06:10.088Z,3.30
2023-08-15T00:08:38.303Z,3.60
2023-08-15T00:11:07.507Z,3.10
2023-08-15T00:13:35.715Z,3.30
2023-08-15T00:16:04.171Z,3.20
2023-08-15T00:18:32.575Z,3.20
2023-08-15T00:21:01.079Z,3.00
2023-08-15T00:23:29.583Z,3.20
2023-08-15T00:25:58.894Z,3.30
2023-08-15T00:28:27.241Z,3.50
2023-08-15T00:30:56.130Z,4.00
2023-08-15T00:33:24.699Z,4.30
2023-08-15T00:35:53.046Z,3.30
2023-08-15T00:38:21.666Z,3.30
2023-08-15T00:40:50.368Z,3.70
2023-08-15T00:43:18.638Z,3.30
2023-08-15T00:45:47.673Z,3.50
2023-08-15T00:48:17.532Z,3.20
2023-08-15T00:50:49.050Z,3.80
2023-08-15T00:53:20.235Z,3.70
2023-08-15T00:55:48.851Z,3.80
2023-08-15T00:58:17.876Z,3.40
2023-08-15T01:00:47.036Z,4.00
2023-08-15T01:03:15.410Z,3.70
2023-08-15T01:05:46.698Z,3.50
2023-08-15T01:08:15.175Z,3.30
2023-08-15T01:10:44.504Z,3.50
2023-08-15T01:13:29.509Z,3.60
2023-08-15T01:15:58.244Z,3.60
2023-08-15T01:18:32.769Z,3.90
2023-08-15T01:21:03.036Z,3.50
2023-08-15T01:23:37.583Z,3.60
2023-08-15T01:26:06.049Z,3.20
2023-08-15T01:28:34.341Z,3.90
2023-08-15T01:31:41.452Z,3.40
2023-08-15T01:34:22.891Z,3.70
2023-08-15T01:37:01.905Z,3.90
2023-08-15T01:39:32.382Z,3.00
2023-08-15T01:42:03.740Z,3.70
2023-08-15T01:44:33.330Z,3.60
2023-08-15T01:47:02.288Z,3.80
2023-08-15T01:49:32.339Z,3.60
2023-08-15T01:52:01.356Z,3.40
2023-08-15T01:54:30.440Z,3.60
2023-08-15T01:56:58.923Z,3.30
2023-08-15T01:59:27.322Z,3.40
2023-08-15T02:01:56.249Z,3.20
2023-08-15T02:04:24.967Z,3.60
2023-08-15T02:06:53.688Z,3.40
2023-08-15T02:09:22.036Z,3.60
2023-08-15T02:11:50.670Z,3.30
2023-08-15T02:14:19.092Z,3.60
2023-08-15T02:16:47.412Z,3.60
2023-08-15T02:19:15.920Z,3.00
2023-08-15T02:21:44.752Z,3.30
2023-08-15T02:24:13.124Z,3.50
2023-08-15T02:26:41.502Z,3.00
2023-08-15T02:29:09.959Z,3.20
2023-08-15T02:31:45.419Z,3.10
2023-08-15T02:34:13.821Z,3.20
2023-08-15T02:36:42.617Z,3.20
2023-08-15T02:39:11.079Z,2.90
2023-08-15T02:41:39.404Z,3.60
2023-08-15T02:44:07.703Z,3.40
2023-08-15T02:46:36.221Z,4.10
2023-08-15T02:49:06.505Z,3.40
2023-08-15T02:51:34.908Z,3.40
2023-08-15T02:54:03.796Z,3.60
2023-08-15T02:56:32.126Z,3.50
2023-08-15T02:59:00.508Z,3.00
2023-08-15T03:01:29.137Z,2.90
2023-08-15T03:03:58.410Z,3.20
2023-08-15T03:06:26.530Z,3.40
2023-08-15T03:08:55.082Z,3.40
2023-08-15T03:11:23.613Z,2.90
2023-08-15T03:13:51.934Z,3.40
2023-08-15T03:16:20.330Z,2.90
2023-08-15T03:18:49.330Z,3.00
2023-08-15T03:21:17.756Z,3.00
2023-08-15T03:23:46.274Z,3.60
2023-08-15T03:26:14.801Z,3.10
2023-08-15T03:28:43.149Z,3.00
2023-08-15T03:31:11.984Z,2.90
2023-08-15T03:33:40.516Z,3.10
2023-08-15T03:36:09.096Z,3.70
2023-08-15T03:38:37.733Z,2.90
2023-08-15T03:41:07.780Z,2.60
2023-08-15T03:43:37.173Z,2.80
2023-08-15T03:46:06.351Z,2.80
2023-08-15T03:48:35.533Z,3.20
2023-08-15T03:51:06.890Z,3.20
2023-08-15T03:53:37.568Z,3.20
2023-08-15T03:56:06.051Z,2.90
2023-08-15T03:58:34.541Z,3.10
2023-08-15T04:01:03.667Z,2.90
2023-08-15T04:03:32.228Z,3.10
2023-08-15T04:06:00.657Z,3.00
2023-08-15T04:08:29.281Z,3.70
2023-08-15T04:10:57.842Z,3.20
2023-08-15T04:13:26.118Z,3.00
2023-08-15T04:15:55.165Z,3.10
2023-08-15T04:18:23.533Z,3.10
2023-08-15T04:20:51.732Z,3.40
2023-08-15T04:23:20.132Z,3.20
2023-08-15T04:25:48.734Z,3.20
2023-08-15T04:28:17.045Z,2.90
2023-08-15T04:30:45.459Z,2.90
2023-08-15T04:33:14.424Z,3.30
2023-08-15T04:35:42.619Z,3.20
2023-08-15T04:38:11.037Z,2.90
2023-08-15T04:40:40.068Z,2.90
2023-08-15T04:43:10.088Z,3.20
2023-08-15T04:45:38.602Z,3.10
2023-08-15T04:48:08.555Z,3.00
2023-08-15T04:50:37.981Z,3.30
2023-08-15T04:53:07.496Z,3.20
2023-08-15T04:55:36.485Z,3.30
2023-08-15T04:58:05.183Z,3.30
2023-08-15T05:00:35.525Z,3.10
2023-08-15T05:03:04.821Z,3.00
2023-08-15T05:05:34.297Z,2.80
2023-08-15T05:08:02.824Z,2.80
2023-08-15T05:10:32.316Z,4.10
2023-08-15T05:13:00.926Z,3.80
2023-08-15T05:15:29.306Z,3.60
2023-08-15T05:17:58.513Z,3.10
2023-08-15T05:20:27.098Z,3.70
2023-08-15T05:22:55.415Z,3.10
2023-08-15T05:25:23.884Z,3.20
2023-08-15T05:27:52.282Z,3.50
2023-08-15T05:30:20.630Z,3.10
2023-08-15T05:32:49.063Z,3.70
2023-08-15T05:35:17.872Z,2.80
2023-08-15T05:37:46.125Z,3.10
2023-08-15T05:40:14.854Z,3.20
2023-08-15T05:42:43.342Z,3.00
2023-08-15T05:45:12.546Z,3.50
2023-08-15T05:47:41.007Z,3.20
2023-08-15T05:50:09.915Z,3.20
2023-08-15T05:52:38.292Z,3.50
2023-08-15T05:55:07.110Z,3.10
2023-08-15T05:57:35.547Z,3.70
2023-08-15T06:00:04.303Z,2.90
2023-08-15T06:02:33.155Z,3.20
2023-08-15T06:05:02.982Z,3.30
2023-08-15T06:07:31.373Z,3.20
2023-08-15T06:10:00.939Z,3.20
2023-08-15T06:12:30.074Z,3.00
2023-08-15T06:14:58.726Z,3.40
2023-08-15T06:17:27.602Z,3.30
2023-08-15T06:19:56.610Z,3.30
2023-08-15T06:22:25.598Z,2.90
2023-08-15T06:24:54.706Z,2.80
2023-08-15T06:27:23.500Z,2.70
2023-08-15T06:29:52.052Z,3.00
2023-08-15T06:32:29.476Z,2.90
2023-08-15T06:34:59.398Z,3.00
2023-08-15T06:37:27.886Z,3.10
2023-08-15T06:39:56.191Z,3.10
2023-08-15T06:42:24.633Z,3.00
2023-08-15T06:45:06.816Z,3.30
2023-08-15T06:47:35.428Z,2.90
2023-08-15T06:50:03.858Z,2.80
2023-08-15T06:52:32.379Z,2.80
2023-08-15T06:55:07.985Z,2.90
2023-08-15T07:00:07.286Z,2.40
2023-08-15T07:02:35.815Z,3.00
2023-08-15T07:05:04.887Z,2.80
2023-08-15T07:07:33.494Z,3.00
2023-08-15T07:10:02.397Z,3.40
2023-08-15T07:12:31.367Z,2.90
2023-08-15T07:14:59.843Z,3.80
2023-08-15T07:17:28.038Z,3.30
2023-08-15T07:19:57.516Z,2.60
2023-08-15T07:22:26.288Z,3.10
2023-08-15T07:24:55.052Z,3.20
2023-08-15T07:27:23.374Z,3.90
2023-08-15T07:29:51.847Z,3.80
2023-08-15T07:32:21.656Z,3.70
2023-08-15T07:34:50.486Z,2.80
2023-08-15T07:37:18.766Z,3.80
2023-08-15T07:39:47.008Z,3.20
2023-08-15T07:42:15.414Z,3.40
2023-08-15T07:44:44.405Z,3.50
2023-08-15T07:47:12.916Z,3.30
2023-08-15T07:49:41.741Z,3.60
2023-08-15T07:52:10.118Z,3.10
2023-08-15T07:54:38.701Z,3.10
2023-08-15T07:57:07.370Z,3.10
2023-08-15T07:59:36.126Z,3.30
2023-08-15T08:02:05.176Z,2.90
2023-08-15T08:04:33.603Z,2.90
2023-08-15T08:07:02.064Z,3.70
2023-08-15T08:09:30.596Z,3.60
2023-08-15T08:11:59.050Z,3.10
2023-08-15T08:14:27.439Z,3.20
2023-08-15T08:16:55.755Z,3.30
2023-08-15T08:19:24.200Z,3.00
2023-08-15T08:21:52.536Z,2.90
2023-08-15T08:24:20.901Z,3.30
2023-08-15T08:26:49.823Z,2.90
2023-08-15T08:29:18.317Z,2.80
2023-08-15T08:31:46.708Z,3.50
2023-08-15T08:34:15.848Z,3.40
2023-08-15T08:36:44.765Z,3.10
2023-08-15T08:39:25.569Z,3.20
2023-08-15T08:42:01.511Z,3.10
2023-08-15T08:44:32.969Z,3.10
2023-08-15T08:47:01.505Z,3.20
2023-08-15T08:49:30.637Z,3.20
2023-08-15T08:52:01.055Z,2.90
2023-08-15T08:54:46.923Z,3.30
2023-08-15T08:57:20.650Z,2.80
2023-08-15T08:59:50.267Z,3.50
2023-08-15T09:02:23.096Z,3.20
2023-08-15T09:04:53.955Z,2.70
2023-08-15T09:07:22.437Z,3.00
2023-08-15T09:09:51.188Z,3.20
2023-08-15T09:12:47.129Z,3.20
2023-08-15T09:15:15.568Z,3.00
2023-08-15T09:17:45.197Z,2.90
2023-08-15T09:20:19.254Z,3.10
2023-08-15T09:22:48.370Z,3.00
2023-08-15T09:25:18.212Z,3.40
2023-08-15T09:27:47.653Z,2.80
2023-08-15T09:30:17.646Z,2.90
2023-08-15T09:32:47.223Z,2.90
2023-08-15T09:35:18.848Z,3.10
2023-08-15T09:37:49.843Z,2.60
2023-08-15T09:40:26.575Z,2.90
2023-08-15T09:42:56.008Z,3.10
2023-08-15T09:45:25.975Z,2.80
2023-08-15T09:47:54.682Z,2.70
2023-08-15T09:50:24.473Z,3.10
2023-08-15T09:52:54.413Z,3.00
2023-08-15T09:55:22.797Z,3.10
2023-08-15T09:57:52.081Z,3.10
2023-08-15T10:00:20.768Z,3.20
2023-08-15T10:02:56.865Z,3.00
2023-08-15T10:07:58.771Z,2.90
2023-08-15T10:10:29.687Z,2.80
2023-08-15T10:12:59.844Z,3.30
2023-08-15T10:15:30.230Z,3.00
2023-08-15T10:17:59.747Z,2.80
2023-08-15T10:20:36.382Z,3.10
2023-08-15T10:23:06.075Z,3.80
2023-08-15T10:25:37.463Z,2.90
2023-08-15T10:28:12.602Z,4.10
2023-08-15T10:30:51.834Z,2.80
2023-08-15T10:33:23.888Z,3.40
2023-08-15T10:36:18.501Z,2.50
2023-08-15T10:38:46.836Z,2.60
2023-08-15T10:41:17.177Z,2.50
2023-08-15T10:43:51.594Z,3.30
2023-08-15T10:46:27.127Z,3.40
2023-08-15T10:49:03.583Z,3.10
2023-08-15T10:51:36.159Z,3.10
2023-08-15T10:54:12.822Z,3.30
2023-08-15T10:56:43.090Z,3.30
2023-08-15T10:59:16.939Z,2.90
2023-08-15T11:01:47.890Z,3.20
2023-08-15T11:04:18.772Z,2.80
2023-08-15T11:06:51.764Z,3.60
2023-08-15T11:09:27.827Z,2.80
2023-08-15T11:12:05.150Z,3.90
2023-08-15T11:14:34.240Z,2.60
2023-08-15T11:17:02.634Z,3.30
2023-08-15T11:19:34.060Z,2.50
2023-08-15T11:22:02.332Z,2.80
2023-08-15T11:24:34.142Z,3.20
2023-08-15T11:27:02.620Z,2.90
2023-08-15T11:29:31.119Z,2.50
2023-08-15T11:32:02.535Z,2.50
2023-08-15T11:34:31.026Z,2.50
2023-08-15T11:36:59.260Z,2.70
2023-08-15T11:39:27.782Z,2.90
2023-08-15T11:41:56.573Z,2.80
2023-08-15T11:44:24.850Z,2.40
2023-08-15T11:46:55.310Z,2.50
2023-08-15T11:49:24.958Z,2.30
2023-08-15T11:52:03.390Z,2.50
2023-08-15T11:54:32.062Z,3.10
2023-08-15T11:57:00.683Z,2.50
2023-08-15T11:59:32.263Z,2.50
2023-08-15T12:02:02.591Z,2.70
2023-08-15T12:04:36.895Z,2.90
2023-08-15T12:07:10.837Z,2.90
2023-08-15T12:09:39.849Z,2.80
2023-08-15T12:12:08.310Z,2.30
2023-08-15T12:14:49.291Z,2.60
2023-08-15T12:17:19.388Z,2.80
2023-08-15T12:19:47.821Z,2.60
2023-08-15T12:22:16.247Z,3.00
2023-08-15T12:24:44.794Z,2.70
2023-08-15T12:27:13.804Z,2.20
2023-08-15T12:30:11.183Z,2.80
2023-08-15T12:32:31.176Z,3.00
2023-08-15T12:34:59.588Z,2.90
2023-08-15T12:37:27.905Z,2.80
2023-08-15T12:39:56.146Z,2.80
2023-08-15T12:42:25.160Z,2.40
2023-08-15T12:44:53.720Z,2.50
2023-08-15T12:47:22.074Z,2.70
2023-08-15T12:49:50.411Z,2.80
2023-08-15T12:52:18.686Z,2.20
2023-08-15T12:54:47.186Z,2.60
2023-08-15T12:57:15.673Z,2.50
2023-08-15T12:59:48.323Z,2.80
2023-08-15T13:02:18.321Z,2.40
2023-08-15T13:04:47.272Z,2.60
2023-08-15T13:07:17.133Z,3.10
2023-08-15T13:09:45.594Z,2.40
2023-08-15T13:12:15.579Z,2.90
2023-08-15T13:14:43.904Z,2.60
2023-08-15T13:17:12.580Z,2.20
2023-08-15T13:19:41.085Z,2.30
2023-08-15T13:22:09.545Z,2.50
2023-08-15T13:24:39.635Z,2.30
2023-08-15T13:27:08.413Z,2.20
2023-08-15T13:29:37.837Z,2.10
2023-08-15T13:32:07.380Z,2.40
2023-08-15T13:34:35.680Z,2.70
2023-08-15T13:37:04.296Z,2.50
2023-08-15T13:39:33.017Z,2.00
2023-08-15T13:42:01.501Z,2.20
2023-08-15T13:44:29.851Z,2.80
2023-08-15T13:46:58.289Z,2.80
2023-08-15T13:49:26.726Z,2.40
2023-08-15T13:51:55.208Z,2.10
2023-08-15T13:54:23.662Z,2.20
2023-08-15T13:56:54.267Z,2.20
2023-08-15T13:59:24.060Z,2.20
2023-08-15T14:01:52.319Z,2.00
2023-08-15T14:04:20.717Z,2.10
2023-08-15T14:06:49.614Z,2.30
2023-08-15T14:09:18.304Z,2.00
2023-08-15T14:11:46.660Z,1.90
2023-08-15T14:14:15.683Z,2.50
2023-08-15T14:16:44.015Z,1.90
2023-08-15T14:19:12.177Z,2.10
2023-08-15T14:21:40.708Z,2.10
2023-08-15T14:24:09.136Z,2.10
2023-08-15T14:26:37.703Z,1.90
2023-08-15T14:29:06.467Z,1.60
2023-08-15T14:31:34.858Z,1.90
2023-08-15T14:34:03.054Z,2.00
2023-08-15T14:36:31.695Z,1.90
2023-08-15T14:38:59.945Z,1.90
2023-08-15T14:41:28.504Z,2.40
2023-08-15T14:43:56.776Z,2.00
2023-08-15T14:46:25.184Z,1.90
2023-08-15T14:48:53.510Z,2.00
2023-08-15T14:51:22.109Z,1.80
2023-08-15T14:53:50.421Z,2.00
2023-08-15T14:56:19.284Z,1.80
2023-08-15T14:58:47.845Z,1.90
2023-08-15T15:01:16.301Z,1.90
2023-08-15T15:03:45.206Z,1.70
2023-08-15T15:06:13.828Z,2.00
2023-08-15T15:08:42.172Z,1.80
2023-08-15T15:11:10.511Z,1.80
2023-08-15T15:13:39.304Z,1.80
2023-08-15T15:16:07.717Z,1.80
2023-08-15T15:18:36.157Z,2.10
2023-08-15T15:21:06.105Z,2.50
2023-08-15T15:23:35.081Z,1.80
2023-08-15T15:26:03.654Z,2.80
2023-08-15T15:28:32.148Z,2.30
2023-08-15T15:31:00.430Z,2.40
2023-08-15T15:33:29.315Z,2.10
2023-08-15T15:35:57.860Z,2.20
2023-08-15T15:38:26.516Z,2.90
2023-08-15T15:40:55.013Z,2.60
2023-08-15T15:43:23.409Z,2.50
2023-08-15T15:45:52.523Z,2.50
2023-08-15T15:48:20.957Z,2.30
2023-08-15T15:50:51.481Z,2.50
2023-08-15T15:53:19.866Z,2.30
2023-08-15T15:55:48.299Z,2.00
2023-08-15T15:58:17.127Z,2.30
2023-08-15T16:00:46.250Z,2.40
2023-08-15T16:03:14.580Z,2.70
2023-08-15T16:05:43.688Z,2.50
2023-08-15T16:08:12.000Z,2.60
2023-08-15T16:10:40.306Z,2.70
2023-08-15T16:13:11.460Z,2.90
2023-08-15T16:15:40.568Z,3.00
2023-08-15T16:18:10.696Z,2.60
2023-08-15T16:20:40.040Z,2.50
2023-08-15T16:23:09.078Z,2.20
2023-08-15T16:25:38.768Z,2.50
2023-08-15T16:28:07.679Z,2.90
2023-08-15T16:30:39.385Z,2.80
2023-08-15T16:33:08.077Z,2.80
2023-08-15T16:35:37.777Z,3.00
2023-08-15T16:38:07.445Z,2.90
2023-08-15T16:40:38.348Z,2.90
2023-08-15T16:43:15.205Z,2.80
2023-08-15T16:45:45.868Z,2.90
2023-08-15T16:48:16.161Z,2.50
2023-08-15T16:50:45.263Z,2.90
2023-08-15T16:53:13.580Z,2.70
2023-08-15T16:55:41.891Z,2.60
2023-08-15T16:58:10.218Z,3.30
2023-08-15T17:00:38.571Z,2.80
2023-08-15T17:03:07.190Z,2.80
2023-08-15T17:05:36.179Z,2.80
2023-08-15T17:08:04.845Z,2.90
2023-08-15T17:10:33.953Z,3.70
2023-08-15T17:13:02.465Z,2.60
2023-08-15T17:15:32.341Z,2.70
2023-08-15T17:18:00.764Z,3.00
2023-08-15T17:20:29.090Z,3.00
2023-08-15T17:22:57.363Z,3.60
2023-08-15T17:25:26.167Z,2.80
2023-08-15T17:27:54.657Z,3.50
2023-08-15T17:30:23.361Z,2.90
2023-08-15T17:32:51.809Z,3.00
2023-08-15T17:35:20.200Z,2.70
2023-08-15T17:37:49.025Z,3.50
2023-08-15T17:40:17.986Z,3.40
2023-08-15T17:42:46.270Z,3.30
2023-08-15T17:45:14.623Z,3.70
2023-08-15T17:47:43.303Z,3.60
2023-08-15T17:50:12.461Z,3.70
2023-08-15T17:52:41.066Z,3.00
2023-08-15T17:55:10.994Z,3.50
2023-08-15T17:57:39.422Z,3.10
2023-08-15T18:00:08.633Z,3.10
2023-08-15T18:02:37.634Z,3.40
2023-08-15T18:05:06.154Z,3.10
2023-08-15T18:07:34.774Z,3.50
2023-08-15T18:10:05.044Z,3.40
2023-08-15T18:12:34.074Z,3.60
2023-08-15T18:15:02.592Z,3.30
2023-08-15T18:17:31.072Z,2.90
2023-08-15T18:19:59.542Z,3.70
2023-08-15T18:22:27.993Z,3.60
2023-08-15T18:24:56.635Z,3.80
2023-08-15T18:27:24.988Z,3.70
2023-08-15T18:29:53.305Z,3.50
2023-08-15T18:32:22.956Z,3.60
2023-08-15T18:34:52.220Z,4.00
2023-08-15T18:37:24.812Z,3.90
2023-08-15T18:39:53.422Z,3.80
2023-08-15T18:42:21.881Z,3.80
2023-08-15T18:44:51.179Z,3.70
2023-08-15T18:47:20.331Z,4.70
2023-08-15T18:49:48.855Z,4.10
2023-08-15T18:52:17.304Z,4.20
2023-08-15T18:54:45.743Z,4.00
2023-08-15T18:57:14.226Z,3.80
2023-08-15T18:59:42.786Z,4.00
2023-08-15T19:02:11.487Z,3.80
2023-08-15T19:04:40.084Z,3.70
2023-08-15T19:07:08.421Z,4.20
2023-08-15T19:09:36.534Z,4.10
2023-08-15T19:12:05.470Z,4.50
2023-08-15T19:14:34.206Z,4.50
2023-08-15T19:17:02.559Z,4.10
2023-08-15T19:19:31.015Z,4.20
2023-08-15T19:21:59.535Z,4.10
2023-08-15T19:24:27.873Z,4.80
2023-08-15T19:26:56.142Z,4.70
2023-08-15T19:29:24.688Z,4.40
2023-08-15T19:31:53.067Z,4.80
2023-08-15T19:34:21.377Z,4.30
2023-08-15T19:36:49.709Z,4.10
2023-08-15T19:39:17.912Z,4.00
2023-08-15T19:41:46.214Z,4.30
2023-08-15T19:44:14.605Z,3.80
2023-08-15T19:46:43.017Z,3.90
2023-08-15T19:49:11.560Z,4.50
2023-08-15T19:51:40.314Z,4.30
2023-08-15T19:54:08.697Z,4.20
2023-08-15T19:56:36.969Z,4.90
2023-08-15T19:59:05.804Z,4.00
2023-08-15T20:01:34.762Z,3.90
2023-08-15T20:04:03.925Z,4.30
2023-08-15T20:06:32.606Z,4.90
2023-08-15T20:09:01.023Z,4.00
2023-08-15T20:11:29.619Z,4.00
2023-08-15T20:13:58.295Z,4.40
2023-08-15T20:16:26.727Z,4.50
2023-08-15T20:18:55.765Z,4.50
2023-08-15T20:21:24.225Z,4.30
2023-08-15T20:23:52.864Z,4.80
2023-08-15T20:26:21.201Z,3.90
2023-08-15T20:28:49.885Z,4.10
2023-08-15T20:31:18.467Z,4.60
2023-08-15T20:33:46.799Z,5.00
2023-08-15T20:36:15.242Z,4.10
2023-08-15T20:38:43.794Z,4.10
2023-08-15T20:41:12.178Z,4.40
2023-08-15T20:43:40.794Z,4.70
2023-08-15T20:46:09.191Z,5.10
2023-08-15T20:48:38.084Z,4.60
2023-08-15T20:51:06.558Z,5.50
2023-08-15T20:53:35.123Z,5.50
2023-08-15T20:56:03.820Z,4.80
2023-08-15T20:58:33.175Z,4.00
2023-08-15T21:01:01.834Z,4.60
2023-08-15T21:03:31.362Z,4.60
2023-08-15T21:06:00.009Z,4.50
2023-08-15T21:08:28.689Z,5.00
2023-08-15T21:10:57.061Z,4.70
2023-08-15T21:13:26.744Z,4.20
2023-08-15T21:15:55.245Z,4.40
2023-08-15T21:18:23.556Z,4.70
2023-08-15T21:20:52.248Z,4.20
2023-08-15T21:23:20.497Z,4.20
2023-08-15T21:25:48.901Z,5.70
2023-08-15T21:28:17.485Z,5.00
2023-08-15T21:30:45.791Z,4.10
2023-08-15T21:33:14.380Z,4.90
2023-08-15T21:35:43.311Z,4.50
2023-08-15T21:38:11.660Z,4.40
2023-08-15T21:40:44.694Z,4.90
2023-08-15T21:43:13.247Z,4.60
2023-08-15T21:45:47.232Z,4.30
2023-08-15T21:48:15.590Z,4.10
2023-08-15T21:50:44.045Z,4.10
2023-08-15T21:53:12.423Z,4.50
2023-08-15T21:55:40.720Z,4.80
2023-08-15T21:58:08.960Z,4.90
2023-08-15T22:00:37.790Z,4.90
2023-08-15T22:03:06.337Z,4.40
2023-08-15T22:05:35.064Z,4.80
2023-08-15T22:08:03.781Z,4.40
2023-08-15T22:10:32.168Z,4.80
2023-08-15T22:13:01.213Z,3.90
2023-08-15T22:15:30.292Z,4.40
2023-08-15T22:18:13.223Z,4.10
2023-08-15T22:20:48.078Z,4.60
2023-08-15T22:23:16.630Z,4.40
2023-08-15T22:25:46.821Z,4.60
2023-08-15T22:28:16.779Z,4.20
2023-08-15T22:30:45.510Z,4.20
2023-08-15T22:33:14.024Z,4.90
2023-08-15T22:35:43.858Z,5.30
2023-08-15T22:38:12.751Z,4.40
2023-08-15T22:40:41.318Z,4.20
2023-08-15T22:43:10.713Z,4.30
2023-08-15T22:45:39.404Z,4.10
2023-08-15T22:48:07.850Z,4.20
2023-08-15T22:50:36.321Z,4.10
2023-08-15T22:53:05.188Z,4.50
2023-08-15T22:55:33.459Z,4.50
2023-08-15T22:58:01.845Z,4.70
2023-08-15T23:00:30.034Z,4.50
2023-08-15T23:02:58.374Z,4.30
2023-08-15T23:05:26.858Z,5.00
2023-08-15T23:07:55.180Z,4.30
2023-08-15T23:10:23.382Z,4.90
2023-08-15T23:12:52.000Z,4.50
2023-08-15T23:15:21.014Z,5.00
2023-08-15T23:17:49.451Z,4.60
2023-08-15T23:20:18.096Z,4.60
2023-08-15T23:22:48.355Z,4.30
2023-08-15T23:25:16.793Z,4.70
2023-08-15T23:27:45.418Z,4.50
2023-08-15T23:30:15.485Z,5.30
2023-08-15T23:32:43.820Z,4.50
2023-08-15T23:35:15.183Z,4.80
2023-08-15T23:37:45.318Z,4.30
2023-08-15T23:40:14.745Z,4.20
2023-08-15T23:42:43.137Z,4.20
2023-08-15T23:45:11.849Z,5.30
2023-08-15T23:47:41.488Z,4.60
2023-08-15T23:50:10.793Z,4.50
2023-08-15T23:52:39.032Z,4.10
2023-08-15T23:55:07.745Z,4.30
2023-08-15T23:57:36.069Z,4.50
